createdAt,value
2022-11-10T19:31:10.546Z,1023.96
2022-11-10T19:32:10.383Z,1023.96
2022-11-10T19:33:10.329Z,1023.93
2022-11-10T19:34:10.286Z,1023.89
2022-11-10T19:35:10.229Z,1023.97
2022-11-10T19:36:10.185Z,1023.93
2022-11-10T19:37:10.134Z,1023.96
2022-11-10T19:38:10.085Z,1023.99
2022-11-10T19:39:10.035Z,1023.97
2022-11-10T19:40:09.991Z,1024.02
2022-11-10T19:41:09.941Z,1023.98
2022-11-10T19:42:09.892Z,1023.94
2022-11-10T19:43:09.850Z,1023.96
2022-11-10T19:44:09.801Z,1023.95
2022-11-10T19:45:09.751Z,1023.90
2022-11-10T19:46:09.711Z,1023.88
2022-11-10T19:47:09.801Z,1023.87
2022-11-10T19:48:09.614Z,1023.86
2022-11-10T19:49:09.572Z,1023.85
2022-11-10T19:50:09.522Z,1023.83
2022-11-10T19:51:09.474Z,1023.81
2022-11-10T19:52:09.431Z,1023.79
2022-11-10T19:53:09.389Z,1023.83
2022-11-10T19:54:09.340Z,1023.85
2022-11-10T19:55:09.291Z,1023.88
2022-11-10T19:56:09.246Z,1023.92
2022-11-10T19:57:09.203Z,1023.96
2022-11-10T19:58:09.157Z,1024.04
2022-11-10T19:59:09.110Z,1024.05
2022-11-10T20:00:09.079Z,1024.08
2022-11-10T20:01:09.102Z,1024.10
2022-11-10T20:02:08.977Z,1024.14
2022-11-10T20:03:09.043Z,1024.11
2022-11-10T20:04:08.891Z,1024.18
2022-11-10T20:05:08.839Z,1024.22
2022-11-10T20:06:08.795Z,1024.22
2022-11-10T20:07:08.772Z,1024.20
2022-11-10T20:08:09.930Z,1024.19
2022-11-10T20:09:08.657Z,1024.15
2022-11-10T20:10:08.615Z,1024.15
2022-11-10T20:11:08.570Z,1024.13
2022-11-10T20:12:08.524Z,1024.09
2022-11-10T20:13:08.479Z,1024.06
2022-11-10T20:14:08.446Z,1024.05
2022-11-10T20:15:08.387Z,1024.07
2022-11-10T20:16:08.349Z,1024.12
2022-11-10T20:17:08.298Z,1024.11
2022-11-10T20:19:08.323Z,1024.14
2022-11-10T20:20:08.163Z,1024.17
2022-11-10T20:21:08.122Z,1024.14
2022-11-10T20:22:08.072Z,1024.18
2022-11-10T20:24:07.985Z,1024.22
2022-11-10T20:25:07.939Z,1024.18
2022-11-10T20:26:07.902Z,1024.23
2022-11-10T20:27:07.847Z,1024.17
2022-11-10T20:28:07.807Z,1024.22
2022-11-10T20:29:07.759Z,1024.20
2022-11-10T20:30:07.715Z,1024.13
2022-11-10T20:31:07.669Z,1024.16
2022-11-10T20:32:07.625Z,1024.15
2022-11-10T20:33:07.577Z,1024.14
2022-11-10T20:34:07.535Z,1024.22
2022-11-10T20:35:07.601Z,1024.20
2022-11-10T20:36:07.446Z,1024.23
2022-11-10T20:37:07.401Z,1024.28
2022-11-10T20:38:07.358Z,1024.31
2022-11-10T20:39:07.307Z,1024.33
2022-11-10T20:40:23.950Z,1024.29
2022-11-10T20:41:07.219Z,1024.35
2022-11-10T20:42:07.176Z,1024.43
2022-11-10T20:44:07.085Z,1024.48
2022-11-10T20:45:07.044Z,1024.45
2022-11-10T20:46:07.087Z,1024.47
2022-11-10T20:47:06.993Z,1024.49
2022-11-10T20:48:06.906Z,1024.50
2022-11-10T20:49:06.861Z,1024.40
2022-11-10T20:50:11.516Z,1024.43
2022-11-10T20:51:06.886Z,1024.44
2022-11-10T20:52:06.726Z,1024.46
2022-11-10T20:54:06.640Z,1024.49
2022-11-10T20:55:06.588Z,1024.55
2022-11-10T20:56:06.549Z,1024.51
2022-11-10T20:58:06.455Z,1024.51
2022-11-10T20:59:06.415Z,1024.53
2022-11-10T21:00:06.368Z,1024.57
2022-11-10T21:01:06.325Z,1024.53
2022-11-10T21:02:06.361Z,1024.52
2022-11-10T21:03:06.232Z,1024.53
2022-11-10T21:04:06.209Z,1024.56
2022-11-10T21:05:06.143Z,1024.57
2022-11-10T21:06:06.094Z,1024.59
2022-11-10T21:07:06.225Z,1024.64
2022-11-10T21:08:06.003Z,1024.64
2022-11-10T21:09:05.962Z,1024.62
2022-11-10T21:10:05.916Z,1024.59
2022-11-10T21:11:05.873Z,1024.65
2022-11-10T21:12:05.823Z,1024.67
2022-11-10T21:13:05.783Z,1024.70
2022-11-10T21:14:05.734Z,1024.73
2022-11-10T21:15:05.693Z,1024.66
2022-11-10T21:16:05.642Z,1024.67
2022-11-10T21:17:05.606Z,1024.61
2022-11-10T21:18:05.602Z,1024.56
2022-11-10T21:19:05.572Z,1024.56
2022-11-10T21:20:05.477Z,1024.60
2022-11-10T21:21:05.423Z,1024.66
2022-11-10T21:22:05.371Z,1024.59
2022-11-10T21:23:05.443Z,1024.57
2022-11-10T21:24:05.281Z,1024.61
2022-11-10T21:25:05.239Z,1024.59
2022-11-10T21:26:05.190Z,1024.59
2022-11-10T21:27:05.147Z,1024.56
2022-11-10T21:28:05.100Z,1024.59
2022-11-10T21:29:05.056Z,1024.64
2022-11-10T21:30:07.759Z,1024.73
2022-11-10T21:31:04.969Z,1024.77
2022-11-10T21:32:04.921Z,1024.81
2022-11-10T21:33:04.882Z,1024.82
2022-11-10T21:34:04.836Z,1024.83
2022-11-10T21:35:04.785Z,1024.79
2022-11-10T21:36:04.740Z,1024.80
2022-11-10T21:37:04.694Z,1024.76
2022-11-10T21:38:04.646Z,1024.75
2022-11-10T21:39:04.719Z,1024.77
2022-11-10T21:40:04.559Z,1024.79
2022-11-10T21:41:04.511Z,1024.79
2022-11-10T21:42:04.464Z,1024.75
2022-11-10T21:43:04.426Z,1024.77
2022-11-10T21:44:04.376Z,1024.71
2022-11-10T21:45:04.330Z,1024.75
2022-11-10T21:46:04.288Z,1024.76
2022-11-10T21:47:04.240Z,1024.76
2022-11-10T21:48:04.193Z,1024.79
2022-11-10T21:49:07.631Z,1024.77
2022-11-10T21:51:04.055Z,1024.84
2022-11-10T21:52:04.013Z,1024.77
2022-11-10T21:53:03.965Z,1024.74
2022-11-10T21:54:03.920Z,1024.78
2022-11-10T21:55:03.987Z,1024.77
2022-11-10T21:57:03.831Z,1024.85
2022-11-10T21:58:03.764Z,1024.87
2022-11-10T21:59:03.737Z,1024.89
2022-11-10T22:00:03.676Z,1024.86
2022-11-10T22:01:03.965Z,1024.86
2022-11-10T22:02:03.645Z,1024.88
2022-11-10T22:03:03.523Z,1024.86
2022-11-10T22:04:03.479Z,1024.85
2022-11-10T22:05:03.422Z,1024.86
2022-11-10T22:06:03.376Z,1024.82
2022-11-10T22:07:03.551Z,1024.85
2022-11-10T22:08:03.284Z,1024.85
2022-11-10T22:09:03.239Z,1024.82
2022-11-10T22:10:03.195Z,1024.84
2022-11-10T22:11:03.264Z,1024.82
2022-11-10T22:12:03.102Z,1024.77
2022-11-10T22:13:03.058Z,1024.83
2022-11-10T22:14:03.021Z,1024.86
2022-11-10T22:15:02.970Z,1024.80
2022-11-10T22:16:02.921Z,1024.77
2022-11-10T22:17:02.880Z,1024.77
2022-11-10T22:18:02.838Z,1024.74
2022-11-10T22:19:02.800Z,1024.76
2022-11-10T22:20:02.743Z,1024.70
2022-11-10T22:21:02.694Z,1024.73
2022-11-10T22:22:04.165Z,1024.77
2022-11-10T22:23:02.608Z,1024.81
2022-11-10T22:24:02.574Z,1024.82
2022-11-10T22:25:02.529Z,1024.82
2022-11-10T22:26:02.481Z,1024.81
2022-11-10T22:27:02.533Z,1024.82
2022-11-10T22:28:02.374Z,1024.85
2022-11-10T22:29:02.335Z,1024.83
2022-11-10T22:30:02.287Z,1024.87
2022-11-10T22:31:02.240Z,1024.85
2022-11-10T22:32:02.193Z,1024.91
2022-11-10T22:33:02.196Z,1024.94
2022-11-10T22:34:02.100Z,1024.94
2022-11-10T22:35:02.057Z,1024.97
2022-11-10T22:36:02.010Z,1024.95
2022-11-10T22:37:01.967Z,1024.93
2022-11-10T22:38:01.919Z,1024.93
2022-11-10T22:39:03.560Z,1024.90
2022-11-10T22:40:01.840Z,1024.93
2022-11-10T22:41:01.783Z,1024.97
2022-11-10T22:42:01.736Z,1024.93
2022-11-10T22:43:01.823Z,1024.94
2022-11-10T22:44:01.672Z,1024.90
2022-11-10T22:45:01.607Z,1024.92
2022-11-10T22:46:01.555Z,1024.92
2022-11-10T22:47:01.514Z,1024.93
2022-11-10T22:48:01.465Z,1024.94
2022-11-10T22:49:01.418Z,1024.93
2022-11-10T22:50:01.387Z,1024.93
2022-11-10T22:51:01.328Z,1024.90
2022-11-10T22:52:01.310Z,1024.90
2022-11-10T22:53:01.236Z,1024.94
2022-11-10T22:54:01.191Z,1024.93
2022-11-10T22:55:01.146Z,1024.92
2022-11-10T22:56:01.108Z,1024.98
2022-11-10T22:57:01.056Z,1024.98
2022-11-10T22:58:01.006Z,1025.01
2022-11-10T22:59:01.081Z,1025.07
2022-11-10T23:00:00.927Z,1025.10
2022-11-10T23:01:00.890Z,1025.14
2022-11-10T23:02:00.975Z,1025.16
2022-11-10T23:03:00.780Z,1025.12
2022-11-10T23:04:00.738Z,1025.07
2022-11-10T23:05:00.688Z,1025.01
2022-11-10T23:06:00.640Z,1025.05
2022-11-10T23:07:00.663Z,1025.07
2022-11-10T23:08:00.551Z,1025.10
2022-11-10T23:09:00.508Z,1025.17
2022-11-10T23:10:00.457Z,1025.20
2022-11-10T23:11:00.414Z,1025.20
2022-11-10T23:12:00.368Z,1025.20
2022-11-10T23:13:00.323Z,1025.20
2022-11-10T23:14:00.277Z,1025.21
2022-11-10T23:15:00.349Z,1025.21
2022-11-10T23:16:00.184Z,1025.27
2022-11-10T23:17:00.140Z,1025.34
2022-11-10T23:18:06.308Z,1025.34
2022-11-10T23:19:00.051Z,1025.35
2022-11-10T23:20:00.004Z,1025.31
2022-11-10T23:20:59.959Z,1025.26
2022-11-10T23:21:59.911Z,1025.23
2022-11-10T23:22:59.868Z,1025.18
2022-11-10T23:23:59.823Z,1025.19
2022-11-10T23:24:59.782Z,1025.20
2022-11-10T23:25:59.730Z,1025.24
2022-11-10T23:26:59.688Z,1025.23
2022-11-10T23:27:59.636Z,1025.25
2022-11-10T23:28:59.593Z,1025.21
2022-11-10T23:29:59.546Z,1025.18
2022-11-10T23:30:59.616Z,1025.11
2022-11-10T23:31:59.456Z,1025.01
2022-11-10T23:32:59.410Z,1025.01
2022-11-10T23:33:59.367Z,1025.03
2022-11-10T23:34:59.318Z,1025.10
2022-11-10T23:35:59.270Z,1025.05
2022-11-10T23:36:59.261Z,1025.06
2022-11-10T23:37:59.179Z,1025.07
2022-11-10T23:38:59.141Z,1025.17
2022-11-10T23:39:59.094Z,1025.19
2022-11-10T23:40:59.043Z,1025.21
2022-11-10T23:41:58.996Z,1025.27
2022-11-10T23:42:58.982Z,1025.27
2022-11-10T23:43:58.914Z,1025.33
2022-11-10T23:44:58.866Z,1025.33
2022-11-10T23:46:07.423Z,1025.41
2022-11-10T23:46:58.892Z,1025.41
2022-11-10T23:48:01.920Z,1025.41
2022-11-10T23:48:58.681Z,1025.44
2022-11-10T23:49:58.629Z,1025.52
2022-11-10T23:50:58.587Z,1025.58
2022-11-10T23:51:58.539Z,1025.62
2022-11-10T23:52:58.495Z,1025.57
2022-11-10T23:53:58.465Z,1025.56
2022-11-10T23:54:58.402Z,1025.58
2022-11-10T23:55:58.373Z,1025.67
2022-11-10T23:56:58.311Z,1025.70
2022-11-10T23:57:58.266Z,1025.68
2022-11-10T23:58:58.223Z,1025.68
2022-11-10T23:59:58.178Z,1025.62
